createdAt,value
2022-12-24T00:00:00.924Z,40.61
2022-12-24T00:01:00.915Z,40.39
2022-12-24T00:02:00.947Z,40.71
2022-12-24T00:03:00.991Z,41.79
2022-12-24T00:04:00.863Z,40.50
2022-12-24T00:05:01.516Z,41.25
2022-12-24T00:06:00.840Z,41.14
2022-12-24T00:07:00.818Z,41.14
2022-12-24T00:08:00.839Z,41.57
2022-12-24T00:09:01.747Z,40.61
2022-12-24T00:10:00.803Z,41.68
2022-12-24T00:11:00.797Z,41.14
2022-12-24T00:12:00.803Z,40.71
2022-12-24T00:13:00.756Z,41.46
2022-12-24T00:14:00.743Z,40.71
2022-12-24T00:15:00.726Z,41.46
2022-12-24T00:16:00.721Z,41.14
2022-12-24T00:17:00.725Z,41.46
2022-12-24T00:18:00.705Z,40.82
2022-12-24T00:19:00.663Z,40.82
2022-12-24T00:20:00.659Z,41.57
2022-12-24T00:21:00.634Z,40.71
2022-12-24T00:22:00.628Z,40.71
2022-12-24T00:23:00.725Z,40.71
2022-12-24T00:24:00.624Z,41.68
2022-12-24T00:25:00.580Z,40.61
2022-12-24T00:26:00.569Z,39.75
2022-12-24T00:27:00.558Z,39.85
2022-12-24T00:28:00.559Z,40.93
2022-12-24T00:29:01.477Z,40.39
2022-12-24T00:30:00.519Z,40.28
2022-12-24T00:31:00.581Z,40.28
2022-12-24T00:32:00.525Z,39.21
2022-12-24T00:33:00.487Z,39.32
2022-12-24T00:34:00.499Z,39.96
2022-12-24T00:35:00.445Z,40.61
2022-12-24T00:36:00.705Z,40.28
2022-12-24T00:37:00.552Z,40.18
2022-12-24T00:38:00.432Z,39.53
2022-12-24T00:39:00.395Z,40.50
2022-12-24T00:40:00.403Z,40.71
2022-12-24T00:41:00.384Z,39.64
2022-12-24T00:42:00.372Z,39.85
2022-12-24T00:43:00.348Z,40.50
2022-12-24T00:44:00.357Z,39.96
2022-12-24T00:45:00.331Z,40.82
2022-12-24T00:46:00.422Z,40.61
2022-12-24T00:47:00.304Z,40.07
2022-12-24T00:48:00.551Z,40.82
2022-12-24T00:49:01.242Z,39.75
2022-12-24T00:50:00.265Z,39.75
2022-12-24T00:51:00.272Z,39.42
2022-12-24T00:52:00.251Z,38.89
2022-12-24T00:53:01.452Z,39.75
2022-12-24T00:54:00.238Z,39.96
2022-12-24T00:55:00.216Z,39.64
2022-12-24T00:56:00.184Z,38.89
2022-12-24T00:57:00.203Z,39.21
2022-12-24T00:58:00.160Z,39.10
2022-12-24T00:59:00.144Z,39.64
2022-12-24T01:00:00.180Z,40.18
2022-12-24T01:01:00.209Z,38.56
2022-12-24T01:02:00.161Z,39.10
2022-12-24T01:03:00.252Z,39.10
2022-12-24T01:04:00.113Z,39.21
2022-12-24T01:05:00.089Z,39.96
2022-12-24T01:06:00.083Z,39.96
2022-12-24T01:07:00.039Z,39.96
2022-12-24T01:08:00.063Z,38.99
2022-12-24T01:09:00.010Z,39.96
2022-12-24T01:10:00.263Z,39.53
2022-12-24T01:11:00.237Z,39.42
2022-12-24T01:11:59.972Z,39.96
2022-12-24T01:12:59.988Z,39.96
2022-12-24T01:13:59.950Z,39.53
2022-12-24T01:14:59.932Z,39.10
2022-12-24T01:15:59.969Z,38.89
2022-12-24T01:16:59.916Z,39.75
2022-12-24T01:17:59.902Z,38.67
2022-12-24T01:18:59.894Z,38.99
2022-12-24T01:19:59.871Z,38.89
2022-12-24T01:20:59.859Z,39.64
2022-12-24T01:21:59.842Z,38.78
2022-12-24T01:22:59.860Z,39.85
2022-12-24T01:23:59.801Z,39.42
2022-12-24T01:24:59.818Z,38.89
2022-12-24T01:25:59.783Z,39.42
2022-12-24T01:26:59.772Z,39.53
2022-12-24T01:27:59.763Z,38.24
2022-12-24T01:28:59.743Z,39.32
2022-12-24T01:29:59.746Z,38.99
2022-12-24T01:30:59.803Z,38.89
2022-12-24T01:31:59.706Z,38.78
2022-12-24T01:32:59.704Z,38.67
2022-12-24T01:33:59.686Z,38.89
2022-12-24T01:34:59.678Z,40.18
2022-12-24T01:35:59.663Z,39.10
2022-12-24T01:36:59.644Z,38.99
2022-12-24T01:37:59.634Z,38.78
2022-12-24T01:38:59.618Z,38.78
2022-12-24T01:39:59.605Z,38.56
2022-12-24T01:40:59.594Z,38.89
2022-12-24T01:41:59.586Z,39.10
2022-12-24T01:42:59.569Z,38.67
2022-12-24T01:43:59.555Z,38.89
2022-12-24T01:44:59.536Z,39.85
2022-12-24T01:45:59.539Z,38.89
2022-12-24T01:46:59.512Z,38.99
2022-12-24T01:47:59.540Z,38.99
2022-12-24T01:48:59.503Z,38.46
2022-12-24T01:49:59.476Z,38.46
2022-12-24T01:50:59.519Z,38.46
2022-12-24T01:51:59.442Z,39.21
2022-12-24T01:52:59.448Z,38.56
2022-12-24T01:53:59.419Z,39.10
2022-12-24T01:54:59.423Z,38.89
2022-12-24T01:55:59.413Z,38.99
2022-12-24T01:56:59.389Z,38.99
2022-12-24T01:57:59.378Z,38.13
2022-12-24T01:58:59.351Z,38.89
2022-12-24T01:59:59.351Z,38.99
2022-12-24T02:00:59.332Z,38.56
2022-12-24T02:01:59.471Z,38.56
2022-12-24T02:02:59.475Z,38.99
2022-12-24T02:03:59.311Z,38.99
2022-12-24T02:04:59.292Z,38.46
2022-12-24T02:05:59.261Z,38.99
2022-12-24T02:06:59.240Z,38.78
2022-12-24T02:07:59.266Z,39.10
2022-12-24T02:08:59.240Z,39.10
2022-12-24T02:09:59.222Z,38.78
2022-12-24T02:10:59.199Z,38.89
2022-12-24T02:11:59.201Z,37.71
2022-12-24T02:12:59.195Z,38.89
2022-12-24T02:13:59.161Z,38.99
2022-12-24T02:14:59.147Z,39.21
2022-12-24T02:15:59.259Z,38.56
2022-12-24T02:16:59.128Z,38.46
2022-12-24T02:17:59.148Z,39.21
2022-12-24T02:18:59.323Z,37.92
2022-12-24T02:19:59.085Z,38.67
2022-12-24T02:20:59.072Z,37.71
2022-12-24T02:21:59.090Z,37.81
2022-12-24T02:22:59.071Z,38.13
2022-12-24T02:23:59.025Z,38.56
2022-12-24T02:24:59.016Z,38.24
2022-12-24T02:25:59.004Z,37.92
2022-12-24T02:26:59.002Z,38.46
2022-12-24T02:27:58.995Z,37.71
2022-12-24T02:28:58.957Z,38.13
2022-12-24T02:29:58.954Z,38.46
2022-12-24T02:30:58.980Z,37.81
2022-12-24T02:31:58.923Z,37.92
2022-12-24T02:32:58.918Z,38.13
2022-12-24T02:33:58.892Z,37.71
2022-12-24T02:34:58.895Z,37.71
2022-12-24T02:35:58.870Z,38.46
2022-12-24T02:36:58.859Z,38.89
2022-12-24T02:37:58.859Z,37.49
2022-12-24T02:38:58.828Z,38.99
2022-12-24T02:39:58.845Z,39.32
2022-12-24T02:40:58.803Z,38.03
2022-12-24T02:41:58.780Z,37.92
2022-12-24T02:42:58.791Z,38.56
2022-12-24T02:43:58.757Z,37.71
2022-12-24T02:44:58.757Z,37.71
2022-12-24T02:45:59.512Z,38.67
2022-12-24T02:46:58.768Z,37.92
2022-12-24T02:47:58.712Z,37.71
2022-12-24T02:48:58.715Z,37.81
2022-12-24T02:49:58.692Z,37.92
2022-12-24T02:50:58.693Z,38.03
2022-12-24T02:51:58.654Z,39.10
2022-12-24T02:52:58.662Z,37.81
2022-12-24T02:53:58.638Z,38.67
2022-12-24T02:54:58.631Z,37.92
2022-12-24T02:55:58.590Z,38.13
2022-12-24T02:56:58.595Z,37.81
2022-12-24T02:57:58.601Z,38.03
2022-12-24T02:58:58.589Z,37.81
2022-12-24T02:59:58.551Z,38.89
2022-12-24T03:00:58.634Z,38.67
2022-12-24T03:01:58.643Z,38.03
2022-12-24T03:02:58.581Z,38.03
2022-12-24T03:03:58.499Z,37.71
2022-12-24T03:04:58.508Z,37.38
2022-12-24T03:05:58.479Z,37.81
2022-12-24T03:06:58.463Z,38.78
2022-12-24T03:07:58.453Z,38.78
2022-12-24T03:08:58.438Z,38.56
2022-12-24T03:09:58.423Z,38.56
2022-12-24T03:10:58.443Z,38.67
2022-12-24T03:11:58.387Z,37.81
2022-12-24T03:12:58.393Z,38.46
2022-12-24T03:13:58.639Z,37.60
2022-12-24T03:14:58.355Z,38.13
2022-12-24T03:15:58.360Z,38.03
2022-12-24T03:16:58.340Z,38.67
2022-12-24T03:17:58.329Z,37.49
2022-12-24T03:18:58.325Z,37.60
2022-12-24T03:19:58.304Z,37.92
2022-12-24T03:20:58.294Z,38.56
2022-12-24T03:21:58.295Z,38.67
2022-12-24T03:22:58.263Z,38.03
2022-12-24T03:23:58.234Z,38.67
2022-12-24T03:24:58.241Z,37.71
2022-12-24T03:25:58.215Z,38.67
2022-12-24T03:26:58.482Z,38.56
2022-12-24T03:27:58.203Z,37.92
2022-12-24T03:28:58.183Z,38.89
2022-12-24T03:29:58.170Z,37.92
2022-12-24T03:30:58.151Z,38.67
2022-12-24T03:31:58.202Z,37.71
2022-12-24T03:32:58.143Z,37.81
2022-12-24T03:33:58.109Z,37.71
2022-12-24T03:34:58.103Z,38.03
2022-12-24T03:35:58.093Z,38.99
2022-12-24T03:36:58.076Z,38.46
2022-12-24T03:37:58.074Z,37.38
2022-12-24T03:38:58.049Z,38.78
2022-12-24T03:39:58.056Z,39.10
2022-12-24T03:40:58.027Z,37.38
2022-12-24T03:41:58.002Z,38.89
2022-12-24T03:42:58.007Z,38.56
2022-12-24T03:43:57.975Z,37.81
2022-12-24T03:44:57.980Z,38.99
2022-12-24T03:45:57.977Z,38.03
2022-12-24T03:46:57.937Z,38.89
2022-12-24T03:47:57.926Z,37.49
2022-12-24T03:48:57.918Z,38.46
2022-12-24T03:49:57.906Z,38.89
2022-12-24T03:50:57.880Z,37.92
2022-12-24T03:51:57.878Z,37.81
2022-12-24T03:52:57.867Z,37.49
2022-12-24T03:53:57.851Z,37.38
2022-12-24T03:54:57.832Z,37.92
2022-12-24T03:55:57.825Z,38.67
2022-12-24T03:56:57.809Z,37.71
2022-12-24T03:57:57.796Z,37.60
2022-12-24T03:58:57.797Z,37.60
2022-12-24T03:59:57.768Z,38.03
2022-12-24T04:00:57.812Z,37.49
2022-12-24T04:01:57.856Z,38.24
2022-12-24T04:02:57.775Z,38.46
2022-12-24T04:03:57.722Z,38.46
2022-12-24T04:04:57.701Z,37.92
2022-12-24T04:05:57.681Z,37.60
2022-12-24T04:06:57.671Z,38.03
2022-12-24T04:07:57.683Z,37.60
2022-12-24T04:08:57.649Z,37.81
2022-12-24T04:09:57.898Z,37.71
2022-12-24T04:10:57.622Z,38.89
2022-12-24T04:11:57.615Z,37.38
2022-12-24T04:12:57.611Z,38.03
2022-12-24T04:13:57.579Z,38.46
2022-12-24T04:14:57.572Z,37.28
2022-12-24T04:15:57.559Z,38.78
2022-12-24T04:16:57.577Z,38.24
2022-12-24T04:17:57.542Z,37.81
2022-12-24T04:18:57.527Z,37.71
2022-12-24T04:19:57.516Z,37.49
2022-12-24T04:20:57.515Z,37.81
2022-12-24T04:21:57.518Z,37.81
2022-12-24T04:22:57.474Z,37.81
2022-12-24T04:23:57.446Z,37.92
2022-12-24T04:24:57.478Z,37.71
2022-12-24T04:25:57.425Z,37.60
2022-12-24T04:26:57.416Z,37.06
2022-12-24T04:27:57.407Z,37.60
2022-12-24T04:28:57.390Z,37.81
2022-12-24T04:29:57.383Z,37.60
2022-12-24T04:30:57.367Z,37.81
2022-12-24T04:31:57.388Z,37.81
2022-12-24T04:32:57.367Z,37.49
2022-12-24T04:33:57.320Z,37.60
2022-12-24T04:34:57.330Z,37.71
2022-12-24T04:35:57.288Z,36.95
2022-12-24T04:36:57.302Z,37.38
2022-12-24T04:37:57.275Z,37.06
2022-12-24T04:38:57.259Z,37.60
2022-12-24T04:39:57.240Z,37.38
2022-12-24T04:40:57.230Z,37.60
2022-12-24T04:41:57.239Z,38.03
2022-12-24T04:42:57.220Z,37.49
2022-12-24T04:43:57.190Z,37.71
2022-12-24T04:44:57.178Z,37.92
2022-12-24T04:45:57.261Z,37.92
2022-12-24T04:46:57.171Z,37.49
2022-12-24T04:47:57.149Z,38.13
2022-12-24T04:48:57.158Z,37.81
2022-12-24T04:49:57.116Z,37.06
2022-12-24T04:50:57.149Z,37.49
2022-12-24T04:51:57.073Z,37.17
2022-12-24T04:52:57.092Z,37.71
2022-12-24T04:53:57.103Z,37.81
2022-12-24T04:54:57.044Z,38.13
2022-12-24T04:55:57.042Z,38.03
2022-12-24T04:56:57.028Z,37.71
2022-12-24T04:57:57.014Z,37.38
2022-12-24T04:58:56.994Z,37.60
2022-12-24T04:59:57.015Z,37.60
2022-12-24T05:00:56.995Z,37.60
2022-12-24T05:01:57.040Z,37.38
2022-12-24T05:02:57.057Z,38.03
2022-12-24T05:03:56.948Z,37.71
2022-12-24T05:04:56.934Z,37.81
2022-12-24T05:06:01.417Z,37.71
2022-12-24T05:06:56.901Z,37.81
2022-12-24T05:07:56.889Z,37.38
2022-12-24T05:08:56.886Z,37.17
2022-12-24T05:09:56.848Z,37.92
2022-12-24T05:10:56.828Z,37.38
2022-12-24T05:11:56.835Z,37.92
2022-12-24T05:12:56.824Z,37.17
2022-12-24T05:13:56.808Z,36.95
2022-12-24T05:14:56.779Z,36.95
2022-12-24T05:15:56.782Z,37.17
2022-12-24T05:16:56.840Z,36.95
2022-12-24T05:17:56.760Z,37.17
2022-12-24T05:18:56.753Z,38.13
2022-12-24T05:19:56.735Z,37.92
2022-12-24T05:20:56.700Z,37.17
2022-12-24T05:21:56.704Z,36.95
2022-12-24T05:22:56.728Z,37.81
2022-12-24T05:23:56.660Z,37.49
2022-12-24T05:24:56.658Z,37.38
2022-12-24T05:25:56.642Z,37.17
2022-12-24T05:26:56.642Z,37.92
2022-12-24T05:27:56.620Z,37.38
2022-12-24T05:28:56.618Z,37.17
2022-12-24T05:29:56.591Z,36.95
2022-12-24T05:30:56.655Z,37.38
2022-12-24T05:31:56.576Z,38.13
2022-12-24T05:32:56.569Z,37.49
2022-12-24T05:33:56.524Z,36.95
2022-12-24T05:34:56.551Z,38.03
2022-12-24T05:35:56.506Z,37.06
2022-12-24T05:36:56.495Z,37.60
2022-12-24T05:37:56.496Z,36.95
2022-12-24T05:38:56.472Z,38.03
2022-12-24T05:39:56.456Z,37.71
2022-12-24T05:40:56.454Z,37.60
2022-12-24T05:41:56.449Z,37.17
2022-12-24T05:42:56.426Z,37.38
2022-12-24T05:43:56.412Z,38.03
2022-12-24T05:44:56.430Z,36.31
2022-12-24T05:45:56.403Z,37.38
2022-12-24T05:46:56.366Z,36.42
2022-12-24T05:47:56.358Z,37.49
2022-12-24T05:48:56.347Z,37.17
2022-12-24T05:49:56.344Z,37.38
2022-12-24T05:50:56.315Z,36.42
2022-12-24T05:51:56.327Z,36.31
2022-12-24T05:52:56.358Z,37.71
2022-12-24T05:53:57.240Z,37.81
2022-12-24T05:54:56.271Z,37.81
2022-12-24T05:55:56.262Z,37.28
2022-12-24T05:56:56.233Z,37.60
2022-12-24T05:57:56.232Z,37.38
2022-12-24T05:58:56.223Z,37.28
2022-12-24T05:59:56.211Z,37.71
2022-12-24T06:00:56.191Z,37.17
2022-12-24T06:01:56.250Z,35.77
2022-12-24T06:02:56.302Z,37.71
2022-12-24T06:03:56.144Z,36.95
2022-12-24T06:04:56.241Z,36.74
2022-12-24T06:05:56.123Z,37.49
2022-12-24T06:06:56.117Z,36.52
2022-12-24T06:07:56.126Z,36.31
2022-12-24T06:08:56.104Z,36.63
2022-12-24T06:09:56.067Z,36.31
2022-12-24T06:10:56.061Z,36.42
2022-12-24T06:11:56.051Z,37.38
2022-12-24T06:12:56.059Z,36.20
2022-12-24T06:13:56.010Z,37.60
2022-12-24T06:14:56.004Z,37.38
2022-12-24T06:15:56.090Z,36.63
2022-12-24T06:16:55.983Z,36.42
2022-12-24T06:17:56.211Z,36.95
2022-12-24T06:18:55.967Z,37.49
2022-12-24T06:19:56.478Z,37.38
2022-12-24T06:23:41.140Z,36.95
2022-12-24T06:23:49.870Z,36.31
2022-12-24T06:24:45.894Z,36.42
2022-12-24T06:25:45.876Z,36.31
2022-12-24T06:26:45.874Z,37.17
2022-12-24T06:27:45.857Z,36.09
2022-12-24T06:28:45.840Z,36.52
2022-12-24T06:29:45.820Z,37.60
2022-12-24T06:30:45.898Z,37.06
2022-12-24T06:31:45.836Z,36.52
2022-12-24T06:32:45.798Z,36.95
2022-12-24T06:33:45.780Z,37.49
2022-12-24T06:34:45.788Z,37.49
2022-12-24T06:35:45.748Z,36.09
2022-12-24T06:36:45.770Z,37.49
2022-12-24T06:37:45.733Z,36.52
2022-12-24T06:38:45.737Z,36.95
2022-12-24T06:39:45.956Z,36.31
2022-12-24T06:40:45.680Z,36.31
2022-12-24T06:41:45.706Z,37.71
2022-12-24T06:42:45.672Z,37.81
2022-12-24T06:43:45.641Z,36.95
2022-12-24T06:44:45.625Z,36.20
2022-12-24T06:45:45.623Z,37.38
2022-12-24T06:46:45.660Z,37.49
2022-12-24T06:47:45.611Z,36.42
2022-12-24T06:48:45.590Z,37.06
2022-12-24T06:49:45.573Z,36.63
2022-12-24T06:50:46.504Z,37.49
2022-12-24T06:51:45.543Z,36.42
2022-12-24T06:52:45.531Z,36.95
2022-12-24T06:53:45.523Z,35.99
2022-12-24T06:54:45.513Z,36.20
2022-12-24T06:55:45.486Z,37.81
2022-12-24T06:56:45.480Z,37.17
2022-12-24T06:57:45.465Z,37.28
2022-12-24T06:58:45.451Z,36.42
2022-12-24T06:59:45.438Z,37.28
2022-12-24T07:00:45.455Z,36.63
2022-12-24T07:01:45.523Z,36.31
2022-12-24T07:02:45.443Z,37.28
2022-12-24T07:03:45.416Z,35.88
2022-12-24T07:04:45.374Z,37.17
2022-12-24T07:05:45.353Z,37.28
2022-12-24T07:06:45.339Z,36.09
2022-12-24T07:07:45.353Z,37.38
2022-12-24T07:08:45.320Z,36.42
2022-12-24T07:09:45.295Z,36.42
2022-12-24T07:10:50.581Z,35.88
2022-12-24T07:11:46.316Z,36.20
2022-12-24T07:12:45.307Z,37.06
2022-12-24T07:13:45.261Z,36.42
2022-12-24T07:14:45.245Z,35.99
2022-12-24T07:15:45.254Z,37.28
2022-12-24T07:16:45.512Z,35.77
2022-12-24T07:17:45.328Z,35.99
2022-12-24T07:18:45.244Z,37.49
2022-12-24T07:19:45.199Z,36.09
2022-12-24T07:20:45.161Z,37.06
2022-12-24T07:21:45.160Z,36.31
2022-12-24T07:22:45.139Z,37.49
2022-12-24T07:23:45.126Z,36.95
2022-12-24T07:24:45.104Z,36.20
2022-12-24T07:25:45.106Z,36.20
2022-12-24T07:26:45.070Z,36.31
2022-12-24T07:27:45.085Z,36.31
2022-12-24T07:28:45.053Z,37.49
2022-12-24T07:29:45.043Z,37.28
2022-12-24T07:30:45.032Z,36.31
2022-12-24T07:31:45.160Z,36.52
2022-12-24T07:32:45.005Z,35.99
2022-12-24T07:33:44.992Z,36.95
2022-12-24T07:34:44.974Z,36.63
2022-12-24T07:35:44.974Z,36.20
2022-12-24T07:36:44.945Z,36.42
2022-12-24T07:37:44.968Z,36.52
2022-12-24T07:38:44.926Z,37.06
2022-12-24T07:39:44.956Z,37.17
2022-12-24T07:40:44.936Z,36.09
2022-12-24T07:41:44.928Z,35.88
2022-12-24T07:42:44.889Z,36.52
2022-12-24T07:43:44.864Z,37.17
2022-12-24T07:44:44.860Z,35.88
2022-12-24T07:45:44.830Z,36.31
2022-12-24T07:46:44.848Z,36.42
2022-12-24T07:47:44.823Z,37.49
2022-12-24T07:48:44.785Z,36.63
2022-12-24T07:49:44.794Z,36.95
2022-12-24T07:50:44.768Z,35.99
2022-12-24T07:51:44.757Z,36.42
2022-12-24T07:52:44.740Z,36.20
2022-12-24T07:53:44.729Z,36.31
2022-12-24T07:54:44.709Z,36.42
2022-12-24T07:55:44.710Z,37.28
2022-12-24T07:56:44.696Z,35.99
2022-12-24T07:57:44.691Z,36.63
2022-12-24T07:58:44.694Z,37.38
2022-12-24T07:59:45.610Z,36.42
2022-12-24T08:00:44.633Z,37.17
2022-12-24T08:01:44.809Z,37.17
2022-12-24T08:02:44.893Z,37.17
2022-12-24T08:03:44.677Z,37.28
2022-12-24T08:04:44.591Z,36.20
2022-12-24T08:05:44.735Z,36.09
2022-12-24T08:06:44.550Z,36.09
2022-12-24T08:07:44.559Z,36.52
2022-12-24T08:08:44.532Z,36.20
2022-12-24T08:09:44.529Z,36.95
2022-12-24T08:10:44.750Z,36.42
2022-12-24T08:11:51.415Z,36.95
2022-12-24T08:12:45.490Z,36.09
2022-12-24T08:13:44.469Z,35.88
2022-12-24T08:14:44.463Z,36.20
2022-12-24T08:15:44.440Z,35.99
2022-12-24T08:16:44.495Z,35.88
2022-12-24T08:17:44.426Z,36.31
2022-12-24T08:18:45.344Z,35.99
2022-12-24T08:19:44.403Z,37.38
2022-12-24T08:20:44.379Z,35.13
2022-12-24T08:21:44.366Z,36.20
2022-12-24T08:22:44.364Z,36.09
2022-12-24T08:23:44.330Z,36.09
2022-12-24T08:24:44.337Z,35.02
2022-12-24T08:25:44.306Z,36.20
2022-12-24T08:26:44.303Z,36.31
2022-12-24T08:27:44.317Z,36.42
2022-12-24T08:28:44.272Z,35.88
2022-12-24T08:29:44.272Z,36.42
2022-12-24T08:30:44.251Z,36.42
2022-12-24T08:31:44.327Z,35.88
2022-12-24T08:32:44.218Z,36.20
2022-12-24T08:33:44.228Z,36.31
2022-12-24T08:34:44.190Z,36.42
2022-12-24T08:35:44.182Z,37.17
2022-12-24T08:36:44.399Z,35.88
2022-12-24T08:37:44.172Z,37.06
2022-12-24T08:38:44.140Z,36.95
2022-12-24T08:39:44.119Z,35.99
2022-12-24T08:40:44.121Z,36.09
2022-12-24T08:41:44.126Z,36.20
2022-12-24T08:42:44.342Z,35.88
2022-12-24T08:43:45.299Z,36.09
2022-12-24T08:44:44.077Z,35.88
2022-12-24T08:45:44.070Z,35.77
2022-12-24T08:46:44.103Z,35.99
2022-12-24T08:47:44.033Z,35.99
2022-12-24T08:48:44.030Z,35.88
2022-12-24T08:49:43.992Z,35.88
2022-12-24T08:50:43.996Z,35.77
2022-12-24T08:51:43.978Z,35.88
2022-12-24T08:52:43.958Z,36.31
2022-12-24T08:53:43.971Z,35.88
2022-12-24T08:54:43.954Z,36.42
2022-12-24T08:55:43.970Z,36.31
2022-12-24T08:56:43.904Z,35.99
2022-12-24T08:57:43.895Z,37.38
2022-12-24T08:58:43.884Z,35.99
2022-12-24T08:59:43.862Z,37.28
2022-12-24T09:00:43.920Z,36.42
2022-12-24T09:01:43.969Z,37.17
2022-12-24T09:02:43.950Z,36.31
2022-12-24T09:03:43.883Z,35.88
2022-12-24T09:04:43.796Z,37.17
2022-12-24T09:05:43.776Z,37.28
2022-12-24T09:06:43.764Z,35.77
2022-12-24T09:07:44.738Z,35.34
2022-12-24T09:08:44.040Z,35.23
2022-12-24T09:09:43.739Z,36.31
2022-12-24T09:10:43.719Z,35.02
2022-12-24T09:11:43.703Z,36.31
2022-12-24T09:12:43.719Z,36.52
2022-12-24T09:13:44.652Z,36.31
2022-12-24T09:14:43.660Z,35.34
2022-12-24T09:15:43.662Z,36.31
2022-12-24T09:16:43.760Z,35.88
2022-12-24T09:17:43.636Z,35.99
2022-12-24T09:18:43.619Z,35.99
2022-12-24T09:19:43.600Z,35.34
2022-12-24T09:20:46.874Z,36.20
2022-12-24T09:21:43.572Z,35.99
2022-12-24T09:22:43.560Z,36.52
2022-12-24T09:23:43.773Z,36.20
2022-12-24T09:24:43.536Z,36.31
2022-12-24T09:25:43.516Z,35.13
2022-12-24T09:26:43.520Z,35.13
2022-12-24T09:27:43.512Z,36.09
2022-12-24T09:28:43.473Z,35.88
2022-12-24T09:29:43.461Z,35.23
2022-12-24T09:30:43.453Z,35.23
2022-12-24T09:31:43.466Z,35.34
2022-12-24T09:32:43.426Z,36.42
2022-12-24T09:33:43.433Z,35.99
2022-12-24T09:34:43.392Z,36.09
2022-12-24T09:35:43.404Z,36.95
2022-12-24T09:36:43.380Z,35.45
2022-12-24T09:37:43.371Z,35.34
2022-12-24T09:38:43.401Z,36.31
2022-12-24T09:39:43.362Z,37.17
2022-12-24T09:40:43.314Z,35.23
2022-12-24T09:41:43.320Z,35.88
2022-12-24T09:42:43.295Z,37.17
2022-12-24T09:43:43.280Z,36.09
2022-12-24T09:44:43.267Z,36.42
2022-12-24T09:45:43.290Z,37.06
2022-12-24T09:46:43.238Z,37.28
2022-12-24T09:47:43.252Z,37.06
2022-12-24T09:48:43.229Z,35.99
2022-12-24T09:49:43.209Z,35.88
2022-12-24T09:50:43.187Z,37.17
2022-12-24T09:51:43.206Z,37.06
2022-12-24T09:52:43.167Z,37.17
2022-12-24T09:53:43.439Z,35.77
2022-12-24T09:54:49.346Z,37.17
2022-12-24T09:55:44.129Z,36.52
2022-12-24T09:56:43.109Z,36.95
2022-12-24T09:57:43.164Z,37.17
2022-12-24T09:58:43.369Z,37.38
2022-12-24T09:59:43.105Z,37.17
2022-12-24T10:00:49.591Z,36.74
2022-12-24T10:01:44.165Z,37.06
2022-12-24T10:02:43.243Z,37.28
2022-12-24T10:03:43.080Z,36.52
2022-12-24T10:04:43.021Z,35.88
2022-12-24T10:05:43.016Z,37.38
2022-12-24T10:06:42.981Z,36.52
2022-12-24T10:07:42.982Z,36.31
2022-12-24T10:08:42.980Z,35.13
2022-12-24T10:09:42.962Z,35.88
2022-12-24T10:10:42.965Z,35.88
2022-12-24T10:11:44.554Z,36.31
2022-12-24T10:12:47.720Z,36.42
2022-12-24T10:13:43.902Z,36.09
2022-12-24T10:14:44.333Z,35.99
2022-12-24T10:15:42.864Z,35.99
2022-12-24T10:16:42.911Z,37.17
2022-12-24T10:17:42.854Z,35.23
2022-12-24T10:18:48.959Z,35.88
2022-12-24T10:19:43.815Z,36.20
2022-12-24T10:20:42.794Z,35.99
2022-12-24T10:21:42.794Z,35.99
2022-12-24T10:22:42.786Z,37.49
2022-12-24T10:23:42.756Z,36.95
2022-12-24T10:24:49.856Z,35.88
2022-12-24T10:25:43.756Z,36.42
2022-12-24T10:26:42.714Z,36.52
2022-12-24T10:27:42.712Z,36.31
2022-12-24T10:28:42.700Z,36.20
2022-12-24T10:29:42.676Z,35.34
2022-12-24T10:30:42.736Z,36.09
2022-12-24T10:31:42.654Z,36.52
2022-12-24T10:32:42.651Z,37.17
2022-12-24T10:33:42.635Z,36.20
2022-12-24T10:34:42.608Z,35.88
2022-12-24T10:35:42.618Z,35.23
2022-12-24T10:36:42.746Z,35.02
2022-12-24T10:37:43.598Z,35.13
2022-12-24T10:38:42.565Z,36.42
2022-12-24T10:39:42.547Z,36.31
2022-12-24T10:40:42.571Z,37.28
2022-12-24T10:41:42.544Z,36.31
2022-12-24T10:42:48.363Z,36.31
2022-12-24T10:43:43.489Z,36.20
2022-12-24T10:44:42.496Z,36.20
2022-12-24T10:45:42.530Z,36.09
2022-12-24T10:46:42.547Z,36.63
2022-12-24T10:47:42.452Z,36.09
2022-12-24T10:48:48.272Z,35.88
2022-12-24T10:49:43.422Z,35.99
2022-12-24T10:50:42.410Z,36.31
2022-12-24T10:51:42.413Z,36.85
2022-12-24T10:52:42.394Z,35.13
2022-12-24T10:53:42.370Z,36.31
2022-12-24T10:54:42.347Z,36.09
2022-12-24T10:55:42.365Z,36.31
2022-12-24T10:56:42.342Z,36.52
2022-12-24T10:57:42.316Z,35.13
2022-12-24T10:58:42.294Z,35.23
2022-12-24T10:59:42.294Z,35.88
2022-12-24T11:00:42.312Z,36.31
2022-12-24T11:01:42.380Z,35.23
2022-12-24T11:02:42.362Z,36.09
2022-12-24T11:03:42.327Z,36.63
2022-12-24T11:04:42.223Z,35.13
2022-12-24T11:05:42.245Z,36.52
2022-12-24T11:06:47.597Z,36.20
2022-12-24T11:07:43.193Z,36.31
2022-12-24T11:08:42.177Z,35.34
2022-12-24T11:09:42.164Z,36.09
2022-12-24T11:10:42.133Z,35.02
2022-12-24T11:11:42.138Z,35.77
2022-12-24T11:12:43.081Z,36.20
2022-12-24T11:13:42.115Z,36.31
2022-12-24T11:14:42.095Z,36.31
2022-12-24T11:15:42.106Z,35.34
2022-12-24T11:16:42.069Z,36.42
2022-12-24T11:17:42.053Z,36.31
2022-12-24T11:18:46.777Z,35.99
2022-12-24T11:19:43.049Z,36.20
2022-12-24T11:20:42.021Z,35.99
2022-12-24T11:21:42.003Z,36.52
2022-12-24T11:22:41.999Z,36.42
2022-12-24T11:23:41.988Z,36.52
2022-12-24T11:24:48.152Z,36.09
2022-12-24T11:25:42.951Z,35.99
2022-12-24T11:26:41.943Z,36.42
2022-12-24T11:27:41.942Z,36.52
2022-12-24T11:28:41.918Z,36.31
2022-12-24T11:29:41.905Z,35.77
2022-12-24T11:30:41.927Z,36.31
2022-12-24T11:31:41.885Z,36.63
2022-12-24T11:32:42.091Z,35.45
2022-12-24T11:33:41.844Z,35.13
2022-12-24T11:34:42.073Z,35.13
2022-12-24T11:35:41.828Z,36.31
2022-12-24T11:36:41.822Z,36.09
2022-12-24T11:37:41.794Z,35.23
2022-12-24T11:38:41.776Z,35.13
2022-12-24T11:39:41.760Z,36.63
2022-12-24T11:40:41.771Z,35.23
2022-12-24T11:41:41.748Z,35.02
2022-12-24T11:42:41.757Z,35.34
2022-12-24T11:43:41.714Z,36.52
2022-12-24T11:44:41.715Z,35.23
2022-12-24T11:45:41.726Z,36.09
2022-12-24T11:46:41.839Z,35.99
2022-12-24T11:47:41.689Z,35.23
2022-12-24T11:48:41.679Z,37.17
2022-12-24T11:49:41.641Z,35.23
2022-12-24T11:50:41.665Z,36.20
2022-12-24T11:51:41.607Z,35.23
2022-12-24T11:52:42.048Z,36.63
2022-12-24T11:53:41.581Z,36.63
2022-12-24T11:54:41.581Z,36.09
2022-12-24T11:55:41.561Z,35.23
2022-12-24T11:56:41.564Z,35.88
2022-12-24T11:57:41.534Z,35.45
2022-12-24T11:58:41.524Z,35.34
2022-12-24T11:59:41.511Z,36.52
2022-12-24T12:00:41.547Z,36.09
2022-12-24T12:01:41.593Z,35.02
2022-12-24T12:02:41.551Z,35.13
2022-12-24T12:03:41.761Z,36.20
2022-12-24T12:04:41.460Z,36.42
2022-12-24T12:05:41.435Z,36.20
2022-12-24T12:06:41.428Z,35.88
2022-12-24T12:07:41.417Z,36.31
2022-12-24T12:08:41.401Z,35.13
2022-12-24T12:09:41.382Z,35.45
2022-12-24T12:10:41.391Z,36.20
2022-12-24T12:11:41.352Z,36.20
2022-12-24T12:12:41.354Z,36.63
2022-12-24T12:13:41.323Z,35.45
2022-12-24T12:14:41.311Z,36.31
2022-12-24T12:15:41.357Z,36.42
2022-12-24T12:16:41.333Z,36.31
2022-12-24T12:17:41.283Z,35.23
2022-12-24T12:18:41.274Z,36.09
2022-12-24T12:19:41.274Z,35.99
2022-12-24T12:20:41.238Z,35.34
2022-12-24T12:21:41.230Z,36.31
2022-12-24T12:22:41.222Z,36.09
2022-12-24T12:23:41.198Z,35.34
2022-12-24T12:24:41.207Z,36.09
2022-12-24T12:25:41.166Z,35.23
2022-12-24T12:26:41.161Z,35.34
2022-12-24T12:27:41.149Z,35.34
2022-12-24T12:28:41.146Z,36.42
2022-12-24T12:29:41.108Z,36.09
2022-12-24T12:30:41.112Z,35.34
2022-12-24T12:31:41.138Z,36.42
2022-12-24T12:32:41.116Z,35.99
2022-12-24T12:33:41.060Z,36.74
2022-12-24T12:34:41.052Z,35.77
2022-12-24T12:35:41.039Z,35.99
2022-12-24T12:36:41.040Z,35.23
2022-12-24T12:37:41.043Z,36.63
2022-12-24T12:38:41.012Z,36.31
2022-12-24T12:39:40.981Z,35.45
2022-12-24T12:40:40.980Z,36.09
2022-12-24T12:41:40.960Z,34.70
2022-12-24T12:42:40.970Z,36.42
2022-12-24T12:43:40.932Z,36.63
2022-12-24T12:44:40.923Z,35.34
2022-12-24T12:45:40.912Z,36.52
2022-12-24T12:46:41.011Z,35.34
2022-12-24T12:47:40.892Z,36.31
2022-12-24T12:48:40.877Z,35.88
2022-12-24T12:49:40.860Z,36.52
2022-12-24T12:50:40.861Z,36.63
2022-12-24T12:51:40.843Z,36.20
2022-12-24T12:52:40.843Z,36.42
2022-12-24T12:53:40.834Z,35.34